Terminal Aerodrome Forecast
Issued by NWS Charleston, WV

Home | Current Version | Previous Version | Text Only | Print | Product List | Glossary On
Versions: 1 2 3 4 5 6 7 8 9 10 11 12 13 14 15 16 17 18 19 20 21
492
FTUS41 KRLX 262344
TAFHTS
TAF
KHTS 262344Z 2700/2724 00000KT P6SM FEW250
     FM271000 00000KT P6SM BKN050
     FM271500 22004KT P6SM SHRA OVC040
     FM271700 23004KT 6SM SHRA BR VCTS OVC025CB
     FM272100 22004KT 3SM +SHRA VCTS OVC025CB=

USA.gov is the U.S. government's official web portal to all federal, state and local government web resources and services.